sensor_id;sensor_type;location;lat;lon;timestamp;P1;durP1;ratioP1;P2;durP2;ratioP2
57299;SDS011;43148;50.966;18.198;2023-06-04T00:13:27;3.60;;;3.30;;
57299;SDS011;43148;50.966;18.198;2023-06-04T00:23:09;2.50;;;2.30;;
57299;SDS011;43148;50.966;18.198;2023-06-04T00:32:52;4.10;;;3.60;;
57299;SDS011;43148;50.966;18.198;2023-06-04T00:42:35;3.60;;;3.30;;
57299;SDS011;43148;50.966;18.198;2023-06-04T00:52:19;3.80;;;2.90;;
57299;SDS011;43148;50.966;18.198;2023-06-04T01:02:11;0.80;;;0.80;;
57299;SDS011;43148;50.966;18.198;2023-06-04T01:12:07;2.60;;;2.40;;
57299;SDS011;43148;50.966;18.198;2023-06-04T01:22:10;2.40;;;2.20;;
57299;SDS011;43148;50.966;18.198;2023-06-04T01:31:58;3.50;;;3.30;;
57299;SDS011;43148;50.966;18.198;2023-06-04T01:41:42;2.80;;;2.60;;
57299;SDS011;43148;50.966;18.198;2023-06-04T01:51:27;3.70;;;3.30;;
57299;SDS011;43148;50.966;18.198;2023-06-04T02:01:11;3.50;;;3.20;;
57299;SDS011;43148;50.966;18.198;2023-06-04T02:10:56;3.60;;;3.20;;
57299;SDS011;43148;50.966;18.198;2023-06-04T02:20:45;1.80;;;1.60;;
57299;SDS011;43148;50.966;18.198;2023-06-04T02:30:28;3.50;;;3.20;;
57299;SDS011;43148;50.966;18.198;2023-06-04T02:40:16;4.80;;;3.30;;
57299;SDS011;43148;50.966;18.198;2023-06-04T02:49:59;4.20;;;3.80;;
57299;SDS011;43148;50.966;18.198;2023-06-04T02:59:42;4.80;;;3.70;;
57299;SDS011;43148;50.966;18.198;2023-06-04T03:09:30;2.50;;;2.30;;
57299;SDS011;43148;50.966;18.198;2023-06-04T03:19:36;2.50;;;2.30;;
57299;SDS011;43148;50.966;18.198;2023-06-04T03:29:26;1.40;;;1.30;;
57299;SDS011;43148;50.966;18.198;2023-06-04T03:39:09;2.90;;;2.70;;
57299;SDS011;43148;50.966;18.198;2023-06-04T03:48:54;2.50;;;2.40;;
57299;SDS011;43148;50.966;18.198;2023-06-04T03:58:38;2.80;;;2.60;;
57299;SDS011;43148;50.966;18.198;2023-06-04T04:08:23;4.20;;;2.50;;
57299;SDS011;43148;50.966;18.198;2023-06-04T04:18:07;2.50;;;2.30;;
57299;SDS011;43148;50.966;18.198;2023-06-04T04:27:52;0.80;;;0.80;;
57299;SDS011;43148;50.966;18.198;2023-06-04T04:37:44;1.60;;;1.50;;
57299;SDS011;43148;50.966;18.198;2023-06-04T04:47:29;3.00;;;1.50;;
57299;SDS011;43148;50.966;18.198;2023-06-04T04:57:13;2.00;;;1.80;;
57299;SDS011;43148;50.966;18.198;2023-06-04T05:06:56;1.00;;;1.00;;
57299;SDS011;43148;50.966;18.198;2023-06-04T05:16:39;5.40;;;1.50;;
57299;SDS011;43148;50.966;18.198;2023-06-04T05:26:22;1.40;;;1.40;;
57299;SDS011;43148;50.966;18.198;2023-06-04T05:36:09;1.70;;;1.60;;
57299;SDS011;43148;50.966;18.198;2023-06-04T05:45:53;2.60;;;1.60;;
57299;SDS011;43148;50.966;18.198;2023-06-04T05:55:36;1.20;;;0.70;;
57299;SDS011;43148;50.966;18.198;2023-06-04T06:05:19;1.70;;;1.00;;
57299;SDS011;43148;50.966;18.198;2023-06-04T06:15:03;1.90;;;1.80;;
57299;SDS011;43148;50.966;18.198;2023-06-04T06:24:47;4.30;;;2.20;;
57299;SDS011;43148;50.966;18.198;2023-06-04T06:34:35;1.90;;;1.00;;
57299;SDS011;43148;50.966;18.198;2023-06-04T06:44:18;2.00;;;1.80;;
57299;SDS011;43148;50.966;18.198;2023-06-04T06:54:01;1.10;;;0.90;;
57299;SDS011;43148;50.966;18.198;2023-06-04T07:03:43;1.10;;;1.10;;
57299;SDS011;43148;50.966;18.198;2023-06-04T07:13:27;1.10;;;1.00;;
57299;SDS011;43148;50.966;18.198;2023-06-04T07:23:10;5.10;;;1.30;;
57299;SDS011;43148;50.966;18.198;2023-06-04T07:32:57;0.80;;;0.70;;
57299;SDS011;43148;50.966;18.198;2023-06-04T07:42:42;1.50;;;1.10;;
57299;SDS011;43148;50.966;18.198;2023-06-04T07:52:28;1.70;;;1.10;;
57299;SDS011;43148;50.966;18.198;2023-06-04T08:02:12;0.80;;;0.60;;
57299;SDS011;43148;50.966;18.198;2023-06-04T08:11:56;0.60;;;0.50;;
57299;SDS011;43148;50.966;18.198;2023-06-04T08:21:41;0.40;;;0.30;;
57299;SDS011;43148;50.966;18.198;2023-06-04T08:31:27;0.20;;;0.20;;
57299;SDS011;43148;50.966;18.198;2023-06-04T08:48:32;1.00;;;1.00;;
57299;SDS011;43148;50.966;18.198;2023-06-04T08:58:15;0.90;;;0.90;;
57299;SDS011;43148;50.966;18.198;2023-06-04T09:07:59;1.70;;;0.90;;
57299;SDS011;43148;50.966;18.198;2023-06-04T09:17:43;1.10;;;0.80;;
57299;SDS011;43148;50.966;18.198;2023-06-04T09:28:05;0.20;;;0.20;;
57299;SDS011;43148;50.966;18.198;2023-06-04T09:38:01;0.40;;;0.40;;
57299;SDS011;43148;50.966;18.198;2023-06-04T09:47:57;0.60;;;0.60;;
57299;SDS011;43148;50.966;18.198;2023-06-04T09:57:48;0.70;;;0.70;;
57299;SDS011;43148;50.966;18.198;2023-06-04T10:07:41;2.10;;;2.10;;
57299;SDS011;43148;50.966;18.198;2023-06-04T10:17:28;3.00;;;2.90;;
57299;SDS011;43148;50.966;18.198;2023-06-04T10:27:12;3.70;;;3.60;;
57299;SDS011;43148;50.966;18.198;2023-06-04T10:36:56;7.20;;;7.00;;
57299;SDS011;43148;50.966;18.198;2023-06-04T10:46:55;10.10;;;9.80;;
57299;SDS011;43148;50.966;18.198;2023-06-04T10:56:48;10.70;;;10.40;;
57299;SDS011;43148;50.966;18.198;2023-06-04T11:06:31;11.00;;;10.70;;
57299;SDS011;43148;50.966;18.198;2023-06-04T11:16:19;6.90;;;6.70;;
57299;SDS011;43148;50.966;18.198;2023-06-04T11:26:12;12.30;;;11.90;;
57299;SDS011;43148;50.966;18.198;2023-06-04T11:36:07;15.50;;;15.00;;
57299;SDS011;43148;50.966;18.198;2023-06-04T11:45:52;11.30;;;11.00;;
57299;SDS011;43148;50.966;18.198;2023-06-04T11:55:35;9.60;;;9.30;;
57299;SDS011;43148;50.966;18.198;2023-06-04T12:05:20;12.20;;;11.80;;
57299;SDS011;43148;50.966;18.198;2023-06-04T12:15:22;9.50;;;9.20;;
57299;SDS011;43148;50.966;18.198;2023-06-04T12:25:10;4.20;;;4.10;;
57299;SDS011;43148;50.966;18.198;2023-06-04T12:34:55;6.70;;;6.50;;
57299;SDS011;43148;50.966;18.198;2023-06-04T12:44:44;5.90;;;5.70;;
57299;SDS011;43148;50.966;18.198;2023-06-04T12:54:29;2.00;;;2.00;;
57299;SDS011;43148;50.966;18.198;2023-06-04T13:04:16;1.70;;;1.70;;
57299;SDS011;43148;50.966;18.198;2023-06-04T13:14:05;1.50;;;1.50;;
57299;SDS011;43148;50.966;18.198;2023-06-04T13:23:48;0.10;;;0.10;;
57299;SDS011;43148;50.966;18.198;2023-06-04T13:33:32;0.00;;;0.00;;
57299;SDS011;43148;50.966;18.198;2023-06-04T13:38:25;0.00;;;0.00;;
57299;SDS011;43148;50.966;18.198;2023-06-04T13:48:10;0.00;;;0.00;;
57299;SDS011;43148;50.966;18.198;2023-06-04T13:57:52;1.80;;;0.50;;
57299;SDS011;43148;50.966;18.198;2023-06-04T14:07:35;0.60;;;0.30;;
57299;SDS011;43148;50.966;18.198;2023-06-04T14:17:17;0.50;;;0.50;;
57299;SDS011;43148;50.966;18.198;2023-06-04T14:19:43;2.00;;;1.10;;
57299;SDS011;43148;50.966;18.198;2023-06-04T14:29:29;1.80;;;0.50;;
57299;SDS011;43148;50.966;18.198;2023-06-04T14:39:12;1.30;;;1.20;;
57299;SDS011;43148;50.966;18.198;2023-06-04T14:48:57;7.40;;;1.00;;
57299;SDS011;43148;50.966;18.198;2023-06-04T14:58:41;1.10;;;0.50;;
57299;SDS011;43148;50.966;18.198;2023-06-04T15:08:31;0.50;;;0.50;;
57299;SDS011;43148;50.966;18.198;2023-06-04T15:18:15;1.30;;;1.10;;
57299;SDS011;43148;50.966;18.198;2023-06-04T15:27:58;0.50;;;0.50;;
57299;SDS011;43148;50.966;18.198;2023-06-04T15:37:47;1.80;;;0.40;;
57299;SDS011;43148;50.966;18.198;2023-06-04T15:47:32;0.40;;;0.40;;
57299;SDS011;43148;50.966;18.198;2023-06-04T15:57:15;1.90;;;0.70;;
57299;SDS011;43148;50.966;18.198;2023-06-04T16:21:35;0.50;;;0.50;;
57299;SDS011;43148;50.966;18.198;2023-06-04T16:31:20;0.30;;;0.30;;
57299;SDS011;43148;50.966;18.198;2023-06-04T16:41:02;0.60;;;0.60;;
57299;SDS011;43148;50.966;18.198;2023-06-04T16:50:46;0.60;;;0.60;;
57299;SDS011;43148;50.966;18.198;2023-06-04T17:07:46;1.70;;;0.80;;
57299;SDS011;43148;50.966;18.198;2023-06-04T17:17:29;0.70;;;0.70;;
57299;SDS011;43148;50.966;18.198;2023-06-04T17:27:11;0.50;;;0.50;;
57299;SDS011;43148;50.966;18.198;2023-06-04T17:36:58;0.30;;;0.30;;
57299;SDS011;43148;50.966;18.198;2023-06-04T17:46:42;1.30;;;0.40;;
57299;SDS011;43148;50.966;18.198;2023-06-04T17:56:28;0.90;;;0.90;;
57299;SDS011;43148;50.966;18.198;2023-06-04T18:06:15;8.70;;;1.10;;
57299;SDS011;43148;50.966;18.198;2023-06-04T18:15:58;0.30;;;0.30;;
57299;SDS011;43148;50.966;18.198;2023-06-04T18:25:41;0.40;;;0.30;;
57299;SDS011;43148;50.966;18.198;2023-06-04T18:35:23;0.60;;;0.60;;
57299;SDS011;43148;50.966;18.198;2023-06-04T18:45:12;4.60;;;0.70;;
57299;SDS011;43148;50.966;18.198;2023-06-04T18:54:59;0.80;;;0.80;;
57299;SDS011;43148;50.966;18.198;2023-06-04T19:04:44;0.80;;;0.50;;
57299;SDS011;43148;50.966;18.198;2023-06-04T19:14:26;4.00;;;2.90;;
57299;SDS011;43148;50.966;18.198;2023-06-04T19:24:13;3.50;;;2.30;;
57299;SDS011;43148;50.966;18.198;2023-06-04T19:33:57;2.20;;;1.80;;
57299;SDS011;43148;50.966;18.198;2023-06-04T19:43:40;3.30;;;1.60;;
57299;SDS011;43148;50.966;18.198;2023-06-04T19:53:27;4.60;;;1.00;;
57299;SDS011;43148;50.966;18.198;2023-06-04T20:03:11;1.20;;;0.90;;
57299;SDS011;43148;50.966;18.198;2023-06-04T20:12:54;1.80;;;1.70;;
57299;SDS011;43148;50.966;18.198;2023-06-04T20:22:39;0.60;;;0.60;;
57299;SDS011;43148;50.966;18.198;2023-06-04T20:32:21;1.30;;;1.20;;
57299;SDS011;43148;50.966;18.198;2023-06-04T20:42:07;0.90;;;0.90;;
57299;SDS011;43148;50.966;18.198;2023-06-04T20:51:51;0.50;;;0.50;;
57299;SDS011;43148;50.966;18.198;2023-06-04T21:01:33;2.00;;;1.80;;
57299;SDS011;43148;50.966;18.198;2023-06-04T21:11:16;1.60;;;1.50;;
57299;SDS011;43148;50.966;18.198;2023-06-04T21:21:00;17.10;;;2.10;;
57299;SDS011;43148;50.966;18.198;2023-06-04T21:30:45;1.90;;;1.30;;
57299;SDS011;43148;50.966;18.198;2023-06-04T21:40:28;1.80;;;1.70;;
57299;SDS011;43148;50.966;18.198;2023-06-04T21:50:10;7.30;;;1.20;;
57299;SDS011;43148;50.966;18.198;2023-06-04T21:59:56;1.90;;;1.80;;
57299;SDS011;43148;50.966;18.198;2023-06-04T22:09:41;1.80;;;1.70;;
57299;SDS011;43148;50.966;18.198;2023-06-04T22:19:23;2.50;;;2.10;;
57299;SDS011;43148;50.966;18.198;2023-06-04T22:29:05;1.70;;;1.60;;
57299;SDS011;43148;50.966;18.198;2023-06-04T22:38:48;3.60;;;3.40;;
57299;SDS011;43148;50.966;18.198;2023-06-04T22:48:30;2.20;;;1.90;;
57299;SDS011;43148;50.966;18.198;2023-06-04T22:58:13;1.90;;;1.80;;
57299;SDS011;43148;50.966;18.198;2023-06-04T23:08:00;1.70;;;1.60;;
57299;SDS011;43148;50.966;18.198;2023-06-04T23:25:03;1.80;;;1.70;;
57299;SDS011;43148;50.966;18.198;2023-06-04T23:34:45;7.20;;;1.60;;
57299;SDS011;43148;50.966;18.198;2023-06-04T23:44:28;2.80;;;1.60;;
57299;SDS011;43148;50.966;18.198;2023-06-04T23:54:11;1.20;;;1.20;;
